Airfield :
LOGIN :

Register | Disclaimer

   EN    FR    IT 

 










Legend :    VFR   Marginal VFR   IFR   Intensive IFR   Very Intensive IFR
Visi :
Ceiling :
>= 8 km
>= 3000ft
5 to 8 km
1000 to 3000 ft
1500m to 5 km
500 to 1000 ft
800 to 1500m
200 to 500 ft
< 800m
< 200 ft
Symbols :   Thunderstorms  Fog  Heavy snow  Heavy precipitations  Wind > 20 kt
SIGMETs :     Misc.  Thunderstorms  Icing  Turbulence  Mountain Waves  Volcanic Ashes







- Airport Elevation : 39 ft
- IATA code : SUF


LICA - Lamezia Terme

CURRENT METAR :
  • 261850Z 07026G37KT 9999 SCT030 SCT060 19/12 Q1008

EXPIRED METARs :
  • 261750Z 08022KT 9999 FEW010 BKN030 19/11 Q1009
  • 261650Z 08023KT 9999 SCT020 SCT080 20/10 Q1010 WS RWY 10

TAF TAF LICA
Valid from the 26 at 18:00 until the 27 at 18:00 UTC


261700Z 2618/2718 08020G30KT 9999 SCT020
TEMPO 2618/2724 RA
TEMPO 2700/2706 4000 TSRA
BECMG 2712/2714 26010KT
No reported NOTAMs for that airfield.
3 SIGMETs reported for the Roma FIR (LIRR) :
 
Severe turbulence
LIRR SIGMET 9 VALID 261640/262030 LIIB
LIRR ROMA FIR SEV TURB FCST WI N4016 E00756 - N4015 E01330 - N3628 E01447 - N3627 E01128 - N3730 E01126 - N3900 E00755 - N4016 E00756 FL240/360 STNR NC=
Embedded thunderstorms
LIRR SIGMET 8 VALID 261640/261840 LIIB
LIRR ROMA FIR EMBD TS FCST WI N4117 E01456 - N3628 E01457 - N3630 E01736 - N3853 E01736 - N3855 E01634 - N4117 E01456 TOP FL380 STNR NC=
Embedded thunderstorms
LIRR SIGMET 10 VALID 261840/262040 LIIB
LIRR ROMA FIR EMBD TS FCST WI N4116 E01455 - N3628 E01457 - N3631 E01852 - N3855 E01855 - N3852 E01736 - N3855 E01634 - N4116 E01455 TOP FL380 STNR NC=



MET'MAP, your aeronautical weather chart ! - Copyright ORBIFLY December 2007 - Disclaimer

ORBIFLY MET'MAP TEAM :

Programming & Development : Alexandra Zaïnal
Concept & Development : Baudouin d'Aumeries
Co-Development & Prog : Marc-Olivier Méhu
Technical & hardware support : Manuel Goepfert

Contact : metmap@orbifly.com




SOURCES & CREDITS :

   NOAA